sensor_id;sensor_type;location;lat;lon;timestamp;P1;durP1;ratioP1;P2;durP2;ratioP2
11608;SDS011;5860;52.018;8.536;2023-08-06T00:02:25;6.07;;;5.50;;
11608;SDS011;5860;52.018;8.536;2023-08-06T00:05:05;7.60;;;5.67;;
11608;SDS011;5860;52.018;8.536;2023-08-06T00:07:32;6.83;;;6.23;;
11608;SDS011;5860;52.018;8.536;2023-08-06T00:10:22;7.83;;;5.63;;
11608;SDS011;5860;52.018;8.536;2023-08-06T00:13:19;7.93;;;5.87;;
11608;SDS011;5860;52.018;8.536;2023-08-06T00:15:46;8.53;;;5.93;;
11608;SDS011;5860;52.018;8.536;2023-08-06T00:18:22;6.73;;;5.97;;
11608;SDS011;5860;52.018;8.536;2023-08-06T00:20:55;9.17;;;7.17;;
11608;SDS011;5860;52.018;8.536;2023-08-06T00:23:28;7.87;;;7.03;;
11608;SDS011;5860;52.018;8.536;2023-08-06T00:26:12;9.60;;;7.00;;
11608;SDS011;5860;52.018;8.536;2023-08-06T00:28:39;8.20;;;7.37;;
11608;SDS011;5860;52.018;8.536;2023-08-06T00:31:06;7.93;;;6.90;;
11608;SDS011;5860;52.018;8.536;2023-08-06T00:33:33;8.63;;;6.03;;
11608;SDS011;5860;52.018;8.536;2023-08-06T00:36:00;6.53;;;5.93;;
11608;SDS011;5860;52.018;8.536;2023-08-06T00:38:26;7.60;;;6.83;;
11608;SDS011;5860;52.018;8.536;2023-08-06T00:40:53;11.43;;;6.93;;
11608;SDS011;5860;52.018;8.536;2023-08-06T00:43:20;9.17;;;6.57;;
11608;SDS011;5860;52.018;8.536;2023-08-06T00:45:47;6.87;;;6.27;;
11608;SDS011;5860;52.018;8.536;2023-08-06T00:48:14;7.10;;;6.27;;
11608;SDS011;5860;52.018;8.536;2023-08-06T00:50:41;6.90;;;6.23;;
11608;SDS011;5860;52.018;8.536;2023-08-06T00:53:08;7.67;;;6.73;;
11608;SDS011;5860;52.018;8.536;2023-08-06T00:55:36;8.47;;;6.40;;
11608;SDS011;5860;52.018;8.536;2023-08-06T00:58:03;9.43;;;6.67;;
11608;SDS011;5860;52.018;8.536;2023-08-06T01:00:31;8.87;;;7.13;;
11608;SDS011;5860;52.018;8.536;2023-08-06T01:02:58;8.97;;;6.80;;
11608;SDS011;5860;52.018;8.536;2023-08-06T01:05:25;7.27;;;6.53;;
11608;SDS011;5860;52.018;8.536;2023-08-06T01:13:59;8.17;;;6.20;;
11608;SDS011;5860;52.018;8.536;2023-08-06T01:16:34;8.77;;;6.60;;
11608;SDS011;5860;52.018;8.536;2023-08-06T01:19:03;7.50;;;6.80;;
11608;SDS011;5860;52.018;8.536;2023-08-06T01:21:30;7.33;;;6.60;;
11608;SDS011;5860;52.018;8.536;2023-08-06T01:23:57;9.90;;;7.27;;
11608;SDS011;5860;52.018;8.536;2023-08-06T01:26:26;9.83;;;7.50;;
11608;SDS011;5860;52.018;8.536;2023-08-06T01:29:03;11.03;;;7.00;;
11608;SDS011;5860;52.018;8.536;2023-08-06T01:32:05;8.03;;;6.67;;
11608;SDS011;5860;52.018;8.536;2023-08-06T01:34:36;9.00;;;7.50;;
11608;SDS011;5860;52.018;8.536;2023-08-06T01:37:05;9.57;;;7.07;;
11608;SDS011;5860;52.018;8.536;2023-08-06T01:39:33;8.87;;;7.57;;
11608;SDS011;5860;52.018;8.536;2023-08-06T01:42:00;8.80;;;7.80;;
11608;SDS011;5860;52.018;8.536;2023-08-06T01:44:27;11.70;;;7.63;;
11608;SDS011;5860;52.018;8.536;2023-08-06T01:46:54;7.77;;;6.97;;
11608;SDS011;5860;52.018;8.536;2023-08-06T01:49:21;8.83;;;7.63;;
11608;SDS011;5860;52.018;8.536;2023-08-06T01:51:48;11.50;;;8.00;;
11608;SDS011;5860;52.018;8.536;2023-08-06T01:54:15;9.53;;;7.87;;
11608;SDS011;5860;52.018;8.536;2023-08-06T01:56:42;9.13;;;7.67;;
11608;SDS011;5860;52.018;8.536;2023-08-06T01:59:09;9.97;;;7.40;;
11608;SDS011;5860;52.018;8.536;2023-08-06T02:01:36;9.47;;;8.53;;
11608;SDS011;5860;52.018;8.536;2023-08-06T02:04:03;9.70;;;7.77;;
11608;SDS011;5860;52.018;8.536;2023-08-06T02:06:30;10.30;;;7.77;;
11608;SDS011;5860;52.018;8.536;2023-08-06T02:08:57;10.93;;;7.77;;
11608;SDS011;5860;52.018;8.536;2023-08-06T02:11:23;9.00;;;7.80;;
11608;SDS011;5860;52.018;8.536;2023-08-06T02:13:50;8.83;;;7.93;;
11608;SDS011;5860;52.018;8.536;2023-08-06T02:16:17;11.37;;;7.90;;
11608;SDS011;5860;52.018;8.536;2023-08-06T02:18:44;11.33;;;8.07;;
11608;SDS011;5860;52.018;8.536;2023-08-06T02:21:11;9.57;;;7.83;;
11608;SDS011;5860;52.018;8.536;2023-08-06T02:23:38;9.60;;;7.97;;
11608;SDS011;5860;52.018;8.536;2023-08-06T02:26:05;9.70;;;8.00;;
11608;SDS011;5860;52.018;8.536;2023-08-06T02:28:32;9.73;;;8.17;;
11608;SDS011;5860;52.018;8.536;2023-08-06T02:30:59;9.37;;;8.30;;
11608;SDS011;5860;52.018;8.536;2023-08-06T02:33:26;14.87;;;8.67;;
11608;SDS011;5860;52.018;8.536;2023-08-06T02:35:59;9.67;;;8.00;;
11608;SDS011;5860;52.018;8.536;2023-08-06T02:38:27;9.40;;;8.10;;
11608;SDS011;5860;52.018;8.536;2023-08-06T02:40:54;10.07;;;9.00;;
11608;SDS011;5860;52.018;8.536;2023-08-06T02:43:22;12.73;;;8.63;;
11608;SDS011;5860;52.018;8.536;2023-08-06T02:45:48;13.30;;;9.47;;
11608;SDS011;5860;52.018;8.536;2023-08-06T02:48:15;11.63;;;9.23;;
11608;SDS011;5860;52.018;8.536;2023-08-06T02:50:44;16.40;;;9.07;;
11608;SDS011;5860;52.018;8.536;2023-08-06T02:53:11;11.50;;;9.17;;
11608;SDS011;5860;52.018;8.536;2023-08-06T02:55:38;11.77;;;9.37;;
11608;SDS011;5860;52.018;8.536;2023-08-06T02:58:14;13.97;;;10.57;;
11608;SDS011;5860;52.018;8.536;2023-08-06T03:00:41;13.40;;;10.30;;
11608;SDS011;5860;52.018;8.536;2023-08-06T03:03:09;11.40;;;9.67;;
11608;SDS011;5860;52.018;8.536;2023-08-06T03:05:37;12.90;;;10.30;;
11608;SDS011;5860;52.018;8.536;2023-08-06T03:08:04;11.77;;;9.37;;
11608;SDS011;5860;52.018;8.536;2023-08-06T03:10:31;16.43;;;10.77;;
11608;SDS011;5860;52.018;8.536;2023-08-06T03:12:58;12.40;;;10.00;;
11608;SDS011;5860;52.018;8.536;2023-08-06T03:15:25;12.57;;;9.53;;
11608;SDS011;5860;52.018;8.536;2023-08-06T03:17:52;11.80;;;10.00;;
11608;SDS011;5860;52.018;8.536;2023-08-06T03:20:22;16.47;;;10.67;;
11608;SDS011;5860;52.018;8.536;2023-08-06T03:22:49;13.50;;;10.27;;
11608;SDS011;5860;52.018;8.536;2023-08-06T03:25:16;13.43;;;9.93;;
11608;SDS011;5860;52.018;8.536;2023-08-06T03:27:44;13.43;;;10.60;;
11608;SDS011;5860;52.018;8.536;2023-08-06T03:30:11;12.07;;;10.77;;
11608;SDS011;5860;52.018;8.536;2023-08-06T03:32:38;15.87;;;11.93;;
11608;SDS011;5860;52.018;8.536;2023-08-06T03:35:05;14.70;;;10.67;;
11608;SDS011;5860;52.018;8.536;2023-08-06T03:37:32;13.40;;;10.53;;
11608;SDS011;5860;52.018;8.536;2023-08-06T03:39:59;18.00;;;11.33;;
11608;SDS011;5860;52.018;8.536;2023-08-06T03:42:27;14.80;;;11.60;;
11608;SDS011;5860;52.018;8.536;2023-08-06T03:44:53;13.30;;;11.90;;
11608;SDS011;5860;52.018;8.536;2023-08-06T03:47:20;15.87;;;11.37;;
11608;SDS011;5860;52.018;8.536;2023-08-06T03:49:47;15.37;;;11.80;;
11608;SDS011;5860;52.018;8.536;2023-08-06T03:52:16;22.30;;;11.93;;
11608;SDS011;5860;52.018;8.536;2023-08-06T03:54:43;18.27;;;11.53;;
11608;SDS011;5860;52.018;8.536;2023-08-06T03:57:10;16.87;;;11.70;;
11608;SDS011;5860;52.018;8.536;2023-08-06T03:59:36;15.47;;;11.10;;
11608;SDS011;5860;52.018;8.536;2023-08-06T04:02:04;13.47;;;11.37;;
11608;SDS011;5860;52.018;8.536;2023-08-06T04:04:31;14.53;;;12.30;;
11608;SDS011;5860;52.018;8.536;2023-08-06T04:06:58;17.63;;;12.33;;
11608;SDS011;5860;52.018;8.536;2023-08-06T04:09:25;14.67;;;11.67;;
11608;SDS011;5860;52.018;8.536;2023-08-06T04:11:54;16.43;;;11.77;;
11608;SDS011;5860;52.018;8.536;2023-08-06T04:14:21;18.50;;;13.17;;
11608;SDS011;5860;52.018;8.536;2023-08-06T04:16:48;14.50;;;12.20;;
11608;SDS011;5860;52.018;8.536;2023-08-06T04:19:15;14.50;;;11.63;;
11608;SDS011;5860;52.018;8.536;2023-08-06T04:21:41;11.87;;;10.63;;
11608;SDS011;5860;52.018;8.536;2023-08-06T04:24:08;13.37;;;10.30;;
11608;SDS011;5860;52.018;8.536;2023-08-06T04:26:35;11.87;;;10.57;;
11608;SDS011;5860;52.018;8.536;2023-08-06T04:29:02;17.60;;;10.93;;
11608;SDS011;5860;52.018;8.536;2023-08-06T04:31:29;16.07;;;11.87;;
11608;SDS011;5860;52.018;8.536;2023-08-06T04:33:56;11.63;;;10.43;;
11608;SDS011;5860;52.018;8.536;2023-08-06T04:36:23;13.90;;;10.70;;
11608;SDS011;5860;52.018;8.536;2023-08-06T04:38:50;13.87;;;10.50;;
11608;SDS011;5860;52.018;8.536;2023-08-06T04:41:17;13.20;;;9.73;;
11608;SDS011;5860;52.018;8.536;2023-08-06T04:43:44;11.07;;;9.97;;
11608;SDS011;5860;52.018;8.536;2023-08-06T04:46:11;10.47;;;9.37;;
11608;SDS011;5860;52.018;8.536;2023-08-06T04:48:38;11.57;;;9.00;;
11608;SDS011;5860;52.018;8.536;2023-08-06T04:51:05;12.73;;;9.50;;
11608;SDS011;5860;52.018;8.536;2023-08-06T04:53:32;13.67;;;8.87;;
11608;SDS011;5860;52.018;8.536;2023-08-06T04:55:58;10.73;;;8.80;;
11608;SDS011;5860;52.018;8.536;2023-08-06T04:58:25;10.27;;;8.70;;
11608;SDS011;5860;52.018;8.536;2023-08-06T05:00:52;11.63;;;9.03;;
11608;SDS011;5860;52.018;8.536;2023-08-06T05:03:20;11.47;;;8.83;;
11608;SDS011;5860;52.018;8.536;2023-08-06T05:05:47;8.83;;;7.93;;
11608;SDS011;5860;52.018;8.536;2023-08-06T05:08:14;10.03;;;9.00;;
11608;SDS011;5860;52.018;8.536;2023-08-06T05:10:44;11.40;;;8.37;;
11608;SDS011;5860;52.018;8.536;2023-08-06T05:13:12;14.07;;;8.87;;
11608;SDS011;5860;52.018;8.536;2023-08-06T05:15:39;11.13;;;8.37;;
11608;SDS011;5860;52.018;8.536;2023-08-06T05:18:08;8.77;;;7.77;;
11608;SDS011;5860;52.018;8.536;2023-08-06T05:20:36;11.03;;;8.20;;
11608;SDS011;5860;52.018;8.536;2023-08-06T05:23:07;8.67;;;7.87;;
11608;SDS011;5860;52.018;8.536;2023-08-06T05:25:34;11.27;;;7.77;;
11608;SDS011;5860;52.018;8.536;2023-08-06T05:28:02;8.23;;;7.47;;
11608;SDS011;5860;52.018;8.536;2023-08-06T05:30:29;8.23;;;6.87;;
11608;SDS011;5860;52.018;8.536;2023-08-06T05:32:56;9.17;;;6.87;;
11608;SDS011;5860;52.018;8.536;2023-08-06T05:35:23;8.83;;;6.37;;
11608;SDS011;5860;52.018;8.536;2023-08-06T05:37:50;10.70;;;6.20;;
11608;SDS011;5860;52.018;8.536;2023-08-06T05:40:17;6.67;;;6.07;;
11608;SDS011;5860;52.018;8.536;2023-08-06T05:42:44;6.90;;;6.20;;
11608;SDS011;5860;52.018;8.536;2023-08-06T05:45:11;7.73;;;5.60;;
11608;SDS011;5860;52.018;8.536;2023-08-06T05:47:38;7.67;;;5.97;;
11608;SDS011;5860;52.018;8.536;2023-08-06T05:50:05;7.23;;;5.80;;
11608;SDS011;5860;52.018;8.536;2023-08-06T05:52:33;7.47;;;5.63;;
11608;SDS011;5860;52.018;8.536;2023-08-06T05:54:59;6.13;;;5.03;;
11608;SDS011;5860;52.018;8.536;2023-08-06T05:57:26;7.07;;;4.80;;
11608;SDS011;5860;52.018;8.536;2023-08-06T05:59:53;6.90;;;4.93;;
11608;SDS011;5860;52.018;8.536;2023-08-06T06:02:20;7.80;;;4.63;;
11608;SDS011;5860;52.018;8.536;2023-08-06T06:04:47;5.63;;;4.33;;
11608;SDS011;5860;52.018;8.536;2023-08-06T06:07:14;5.67;;;4.37;;
11608;SDS011;5860;52.018;8.536;2023-08-06T06:09:41;5.03;;;4.53;;
11608;SDS011;5860;52.018;8.536;2023-08-06T06:12:08;5.00;;;4.50;;
11608;SDS011;5860;52.018;8.536;2023-08-06T06:14:35;6.87;;;4.90;;
11608;SDS011;5860;52.018;8.536;2023-08-06T06:17:02;6.43;;;4.50;;
11608;SDS011;5860;52.018;8.536;2023-08-06T06:19:30;5.47;;;4.53;;
11608;SDS011;5860;52.018;8.536;2023-08-06T06:21:56;5.17;;;4.27;;
11608;SDS011;5860;52.018;8.536;2023-08-06T06:24:24;5.30;;;4.23;;
11608;SDS011;5860;52.018;8.536;2023-08-06T06:26:51;6.60;;;4.77;;
11608;SDS011;5860;52.018;8.536;2023-08-06T06:29:18;6.27;;;4.70;;
11608;SDS011;5860;52.018;8.536;2023-08-06T06:31:45;7.23;;;4.20;;
11608;SDS011;5860;52.018;8.536;2023-08-06T06:34:15;5.87;;;3.50;;
11608;SDS011;5860;52.018;8.536;2023-08-06T06:36:47;4.18;;;3.33;;
11608;SDS011;5860;52.018;8.536;2023-08-06T06:39:15;4.43;;;3.28;;
11608;SDS011;5860;52.018;8.536;2023-08-06T06:41:44;5.07;;;2.80;;
11608;SDS011;5860;52.018;8.536;2023-08-06T06:44:11;6.60;;;2.60;;
11608;SDS011;5860;52.018;8.536;2023-08-06T06:46:40;6.50;;;2.65;;
11608;SDS011;5860;52.018;8.536;2023-08-06T06:49:07;2.22;;;1.98;;
11608;SDS011;5860;52.018;8.536;2023-08-06T06:51:34;4.22;;;2.10;;
11608;SDS011;5860;52.018;8.536;2023-08-06T06:54:04;5.30;;;2.63;;
11608;SDS011;5860;52.018;8.536;2023-08-06T06:56:31;4.32;;;2.25;;
11608;SDS011;5860;52.018;8.536;2023-08-06T06:58:58;2.97;;;2.30;;
11608;SDS011;5860;52.018;8.536;2023-08-06T07:01:25;4.78;;;2.45;;
11608;SDS011;5860;52.018;8.536;2023-08-06T07:03:52;3.40;;;2.20;;
11608;SDS011;5860;52.018;8.536;2023-08-06T07:06:19;7.03;;;2.45;;
11608;SDS011;5860;52.018;8.536;2023-08-06T07:08:47;2.15;;;1.85;;
11608;SDS011;5860;52.018;8.536;2023-08-06T07:11:14;3.15;;;2.10;;
11608;SDS011;5860;52.018;8.536;2023-08-06T07:13:41;2.30;;;2.10;;
11608;SDS011;5860;52.018;8.536;2023-08-06T07:16:08;2.97;;;1.90;;
11608;SDS011;5860;52.018;8.536;2023-08-06T07:18:37;2.95;;;1.80;;
11608;SDS011;5860;52.018;8.536;2023-08-06T07:21:04;6.97;;;2.10;;
11608;SDS011;5860;52.018;8.536;2023-08-06T07:23:31;2.30;;;1.90;;
11608;SDS011;5860;52.018;8.536;2023-08-06T07:25:58;4.60;;;2.05;;
11608;SDS011;5860;52.018;8.536;2023-08-06T07:28:31;2.10;;;1.80;;
11608;SDS011;5860;52.018;8.536;2023-08-06T07:31:03;3.58;;;1.80;;
11608;SDS011;5860;52.018;8.536;2023-08-06T07:33:34;5.88;;;2.10;;
11608;SDS011;5860;52.018;8.536;2023-08-06T07:36:07;2.88;;;1.75;;
11608;SDS011;5860;52.018;8.536;2023-08-06T07:38:38;2.80;;;2.00;;
11608;SDS011;5860;52.018;8.536;2023-08-06T07:41:06;1.70;;;1.42;;
11608;SDS011;5860;52.018;8.536;2023-08-06T07:43:34;2.13;;;1.67;;
11608;SDS011;5860;52.018;8.536;2023-08-06T07:46:02;2.97;;;1.92;;
11608;SDS011;5860;52.018;8.536;2023-08-06T07:48:30;2.75;;;2.10;;
11608;SDS011;5860;52.018;8.536;2023-08-06T07:50:57;4.07;;;2.08;;
11608;SDS011;5860;52.018;8.536;2023-08-06T07:53:24;2.83;;;2.10;;
11608;SDS011;5860;52.018;8.536;2023-08-06T07:55:56;2.58;;;2.20;;
11608;SDS011;5860;52.018;8.536;2023-08-06T07:58:26;6.53;;;2.13;;
11608;SDS011;5860;52.018;8.536;2023-08-06T08:00:53;3.72;;;2.42;;
11608;SDS011;5860;52.018;8.536;2023-08-06T08:03:21;4.00;;;2.50;;
11608;SDS011;5860;52.018;8.536;2023-08-06T08:05:48;4.97;;;2.50;;
11608;SDS011;5860;52.018;8.536;2023-08-06T08:08:18;3.20;;;2.90;;
11608;SDS011;5860;52.018;8.536;2023-08-06T08:10:48;3.15;;;2.30;;
11608;SDS011;5860;52.018;8.536;2023-08-06T08:13:15;4.00;;;2.53;;
11608;SDS011;5860;52.018;8.536;2023-08-06T08:15:43;2.30;;;2.10;;
11608;SDS011;5860;52.018;8.536;2023-08-06T08:18:11;3.35;;;2.45;;
11608;SDS011;5860;52.018;8.536;2023-08-06T08:20:38;3.67;;;2.40;;
11608;SDS011;5860;52.018;8.536;2023-08-06T08:23:08;2.58;;;2.22;;
11608;SDS011;5860;52.018;8.536;2023-08-06T08:25:35;4.50;;;2.45;;
11608;SDS011;5860;52.018;8.536;2023-08-06T08:28:04;2.47;;;2.28;;
11608;SDS011;5860;52.018;8.536;2023-08-06T08:30:31;3.30;;;2.58;;
11608;SDS011;5860;52.018;8.536;2023-08-06T08:32:59;5.10;;;2.75;;
11608;SDS011;5860;52.018;8.536;2023-08-06T08:35:26;3.88;;;2.60;;
11608;SDS011;5860;52.018;8.536;2023-08-06T08:37:53;2.53;;;2.17;;
11608;SDS011;5860;52.018;8.536;2023-08-06T08:40:20;4.22;;;2.28;;
11608;SDS011;5860;52.018;8.536;2023-08-06T08:42:55;3.17;;;2.88;;
11608;SDS011;5860;52.018;8.536;2023-08-06T08:45:23;4.40;;;2.38;;
11608;SDS011;5860;52.018;8.536;2023-08-06T08:47:54;3.63;;;2.72;;
11608;SDS011;5860;52.018;8.536;2023-08-06T08:50:22;2.72;;;2.47;;
11608;SDS011;5860;52.018;8.536;2023-08-06T08:52:49;2.35;;;2.15;;
11608;SDS011;5860;52.018;8.536;2023-08-06T08:55:18;3.10;;;2.50;;
11608;SDS011;5860;52.018;8.536;2023-08-06T08:57:47;3.53;;;2.38;;
11608;SDS011;5860;52.018;8.536;2023-08-06T09:00:14;4.45;;;2.13;;
11608;SDS011;5860;52.018;8.536;2023-08-06T09:02:42;4.15;;;2.10;;
11608;SDS011;5860;52.018;8.536;2023-08-06T09:05:10;2.85;;;2.05;;
11608;SDS011;5860;52.018;8.536;2023-08-06T09:07:41;2.60;;;2.38;;
11608;SDS011;5860;52.018;8.536;2023-08-06T09:10:12;4.30;;;2.33;;
11608;SDS011;5860;52.018;8.536;2023-08-06T09:12:44;3.63;;;2.25;;
11608;SDS011;5860;52.018;8.536;2023-08-06T09:15:14;3.05;;;1.98;;
11608;SDS011;5860;52.018;8.536;2023-08-06T09:17:49;2.80;;;2.50;;
11608;SDS011;5860;52.018;8.536;2023-08-06T09:20:16;3.03;;;2.10;;
11608;SDS011;5860;52.018;8.536;2023-08-06T09:22:43;3.83;;;2.10;;
11608;SDS011;5860;52.018;8.536;2023-08-06T09:25:11;2.88;;;1.85;;
11608;SDS011;5860;52.018;8.536;2023-08-06T09:27:47;2.10;;;1.58;;
11608;SDS011;5860;52.018;8.536;2023-08-06T09:30:26;3.38;;;1.50;;
11608;SDS011;5860;52.018;8.536;2023-08-06T09:32:57;2.20;;;1.80;;
11608;SDS011;5860;52.018;8.536;2023-08-06T09:35:24;2.45;;;1.90;;
11608;SDS011;5860;52.018;8.536;2023-08-06T09:38:07;2.55;;;1.45;;
11608;SDS011;5860;52.018;8.536;2023-08-06T09:40:37;3.08;;;2.10;;
11608;SDS011;5860;52.018;8.536;2023-08-06T09:43:05;2.35;;;2.00;;
11608;SDS011;5860;52.018;8.536;2023-08-06T09:45:33;4.85;;;1.98;;
11608;SDS011;5860;52.018;8.536;2023-08-06T09:48:08;2.13;;;1.88;;
11608;SDS011;5860;52.018;8.536;2023-08-06T09:50:37;1.60;;;1.50;;
11608;SDS011;5860;52.018;8.536;2023-08-06T09:53:05;3.38;;;1.65;;
11608;SDS011;5860;52.018;8.536;2023-08-06T09:55:35;3.88;;;2.10;;
11608;SDS011;5860;52.018;8.536;2023-08-06T09:58:02;3.85;;;1.40;;
11608;SDS011;5860;52.018;8.536;2023-08-06T10:00:31;1.92;;;1.35;;
11608;SDS011;5860;52.018;8.536;2023-08-06T10:03:05;3.65;;;1.85;;
11608;SDS011;5860;52.018;8.536;2023-08-06T10:05:34;1.40;;;1.30;;
11608;SDS011;5860;52.018;8.536;2023-08-06T10:08:03;1.50;;;1.40;;
11608;SDS011;5860;52.018;8.536;2023-08-06T10:10:32;3.05;;;1.52;;
11608;SDS011;5860;52.018;8.536;2023-08-06T10:13:00;3.25;;;1.33;;
11608;SDS011;5860;52.018;8.536;2023-08-06T10:15:30;2.85;;;1.30;;
11608;SDS011;5860;52.018;8.536;2023-08-06T10:17:59;1.83;;;1.38;;
11608;SDS011;5860;52.018;8.536;2023-08-06T10:20:32;2.17;;;1.25;;
11608;SDS011;5860;52.018;8.536;2023-08-06T10:23:04;1.60;;;1.40;;
11608;SDS011;5860;52.018;8.536;2023-08-06T10:25:34;1.90;;;1.33;;
11608;SDS011;5860;52.018;8.536;2023-08-06T10:28:11;2.38;;;1.40;;
11608;SDS011;5860;52.018;8.536;2023-08-06T10:30:42;1.38;;;1.00;;
11608;SDS011;5860;52.018;8.536;2023-08-06T10:33:13;2.50;;;1.50;;
11608;SDS011;5860;52.018;8.536;2023-08-06T10:35:45;1.63;;;1.20;;
11608;SDS011;5860;52.018;8.536;2023-08-06T10:38:17;4.28;;;1.50;;
11608;SDS011;5860;52.018;8.536;2023-08-06T10:40:49;1.90;;;1.50;;
11608;SDS011;5860;52.018;8.536;2023-08-06T10:45:54;3.97;;;1.90;;
11608;SDS011;5860;52.018;8.536;2023-08-06T10:48:30;3.42;;;1.63;;
11608;SDS011;5860;52.018;8.536;2023-08-06T10:51:00;1.50;;;1.40;;
11608;SDS011;5860;52.018;8.536;2023-08-06T10:53:28;2.25;;;1.65;;
11608;SDS011;5860;52.018;8.536;2023-08-06T10:55:59;2.22;;;1.70;;
11608;SDS011;5860;52.018;8.536;2023-08-06T10:58:33;1.83;;;1.70;;
11608;SDS011;5860;52.018;8.536;2023-08-06T11:01:00;2.20;;;1.65;;
11608;SDS011;5860;52.018;8.536;2023-08-06T11:03:28;2.70;;;2.05;;
11608;SDS011;5860;52.018;8.536;2023-08-06T11:05:55;3.50;;;1.75;;
11608;SDS011;5860;52.018;8.536;2023-08-06T11:08:26;2.75;;;1.60;;
11608;SDS011;5860;52.018;8.536;2023-08-06T11:10:55;2.90;;;1.70;;
11608;SDS011;5860;52.018;8.536;2023-08-06T11:13:34;3.65;;;1.45;;
11608;SDS011;5860;52.018;8.536;2023-08-06T11:16:01;3.70;;;1.70;;
11608;SDS011;5860;52.018;8.536;2023-08-06T11:18:28;6.80;;;1.60;;
11608;SDS011;5860;52.018;8.536;2023-08-06T11:20:58;2.28;;;1.77;;
11608;SDS011;5860;52.018;8.536;2023-08-06T11:23:29;2.63;;;1.90;;
11608;SDS011;5860;52.018;8.536;2023-08-06T11:25:56;1.85;;;1.67;;
11608;SDS011;5860;52.018;8.536;2023-08-06T11:28:24;2.08;;;1.75;;
11608;SDS011;5860;52.018;8.536;2023-08-06T11:30:51;2.20;;;1.55;;
11608;SDS011;5860;52.018;8.536;2023-08-06T11:33:22;3.17;;;1.67;;
11608;SDS011;5860;52.018;8.536;2023-08-06T11:35:56;2.08;;;1.88;;
11608;SDS011;5860;52.018;8.536;2023-08-06T11:38:28;1.67;;;1.52;;
11608;SDS011;5860;52.018;8.536;2023-08-06T11:40:55;2.20;;;1.40;;
11608;SDS011;5860;52.018;8.536;2023-08-06T11:43:23;1.67;;;1.58;;
11608;SDS011;5860;52.018;8.536;2023-08-06T11:45:50;5.07;;;2.00;;
11608;SDS011;5860;52.018;8.536;2023-08-06T11:48:18;2.85;;;1.42;;
11608;SDS011;5860;52.018;8.536;2023-08-06T11:50:45;1.70;;;1.25;;
11608;SDS011;5860;52.018;8.536;2023-08-06T11:53:13;2.80;;;1.58;;
11608;SDS011;5860;52.018;8.536;2023-08-06T11:55:41;2.67;;;1.27;;
11608;SDS011;5860;52.018;8.536;2023-08-06T11:58:09;2.42;;;1.60;;
11608;SDS011;5860;52.018;8.536;2023-08-06T12:00:39;1.70;;;1.45;;
11608;SDS011;5860;52.018;8.536;2023-08-06T12:03:06;2.65;;;1.75;;
11608;SDS011;5860;52.018;8.536;2023-08-06T12:05:33;2.00;;;1.50;;
11608;SDS011;5860;52.018;8.536;2023-08-06T12:08:01;3.20;;;1.70;;
11608;SDS011;5860;52.018;8.536;2023-08-06T12:10:30;3.28;;;1.80;;
11608;SDS011;5860;52.018;8.536;2023-08-06T12:12:58;3.72;;;1.40;;
11608;SDS011;5860;52.018;8.536;2023-08-06T12:15:26;2.72;;;1.60;;
11608;SDS011;5860;52.018;8.536;2023-08-06T12:17:53;2.17;;;1.48;;
11608;SDS011;5860;52.018;8.536;2023-08-06T12:20:20;2.47;;;1.50;;
11608;SDS011;5860;52.018;8.536;2023-08-06T12:22:47;1.80;;;1.58;;
11608;SDS011;5860;52.018;8.536;2023-08-06T12:25:15;1.70;;;1.60;;
11608;SDS011;5860;52.018;8.536;2023-08-06T12:27:42;1.63;;;1.20;;
11608;SDS011;5860;52.018;8.536;2023-08-06T12:30:10;3.70;;;1.50;;
11608;SDS011;5860;52.018;8.536;2023-08-06T12:32:38;1.80;;;1.40;;
11608;SDS011;5860;52.018;8.536;2023-08-06T12:35:06;1.40;;;1.30;;
11608;SDS011;5860;52.018;8.536;2023-08-06T12:37:34;2.92;;;1.52;;
11608;SDS011;5860;52.018;8.536;2023-08-06T12:40:01;1.80;;;1.50;;
11608;SDS011;5860;52.018;8.536;2023-08-06T12:42:50;1.70;;;1.42;;
11608;SDS011;5860;52.018;8.536;2023-08-06T12:45:17;1.48;;;1.38;;
11608;SDS011;5860;52.018;8.536;2023-08-06T12:47:47;1.42;;;1.33;;
11608;SDS011;5860;52.018;8.536;2023-08-06T12:50:16;1.65;;;1.55;;
11608;SDS011;5860;52.018;8.536;2023-08-06T12:52:43;1.88;;;1.77;;
11608;SDS011;5860;52.018;8.536;2023-08-06T12:55:10;2.55;;;1.33;;
11608;SDS011;5860;52.018;8.536;2023-08-06T12:57:37;1.80;;;1.60;;
11608;SDS011;5860;52.018;8.536;2023-08-06T13:00:21;2.05;;;1.42;;
11608;SDS011;5860;52.018;8.536;2023-08-06T13:02:47;1.75;;;1.65;;
11608;SDS011;5860;52.018;8.536;2023-08-06T13:05:15;3.00;;;1.33;;
11608;SDS011;5860;52.018;8.536;2023-08-06T13:07:41;1.80;;;1.35;;
11608;SDS011;5860;52.018;8.536;2023-08-06T13:10:09;2.75;;;1.50;;
11608;SDS011;5860;52.018;8.536;2023-08-06T13:12:35;3.10;;;2.35;;
11608;SDS011;5860;52.018;8.536;2023-08-06T13:15:02;1.65;;;1.55;;
11608;SDS011;5860;52.018;8.536;2023-08-06T13:17:32;4.45;;;1.85;;
11608;SDS011;5860;52.018;8.536;2023-08-06T13:19:59;3.75;;;1.60;;
11608;SDS011;5860;52.018;8.536;2023-08-06T13:22:26;4.20;;;2.35;;
11608;SDS011;5860;52.018;8.536;2023-08-06T13:24:53;2.42;;;1.73;;
11608;SDS011;5860;52.018;8.536;2023-08-06T13:27:20;1.92;;;1.70;;
11608;SDS011;5860;52.018;8.536;2023-08-06T13:29:47;2.42;;;1.83;;
11608;SDS011;5860;52.018;8.536;2023-08-06T13:32:14;4.15;;;2.70;;
11608;SDS011;5860;52.018;8.536;2023-08-06T13:34:41;2.42;;;2.20;;
11608;SDS011;5860;52.018;8.536;2023-08-06T13:37:08;2.25;;;1.73;;
11608;SDS011;5860;52.018;8.536;2023-08-06T13:39:34;3.45;;;1.67;;
11608;SDS011;5860;52.018;8.536;2023-08-06T13:42:01;1.80;;;1.55;;
11608;SDS011;5860;52.018;8.536;2023-08-06T13:44:28;2.00;;;1.80;;
11608;SDS011;5860;52.018;8.536;2023-08-06T13:46:55;3.28;;;1.80;;
11608;SDS011;5860;52.018;8.536;2023-08-06T13:49:23;2.10;;;1.90;;
11608;SDS011;5860;52.018;8.536;2023-08-06T13:51:49;5.82;;;2.63;;
11608;SDS011;5860;52.018;8.536;2023-08-06T13:54:16;5.70;;;2.75;;
11608;SDS011;5860;52.018;8.536;2023-08-06T13:56:43;4.70;;;2.42;;
11608;SDS011;5860;52.018;8.536;2023-08-06T13:59:11;7.40;;;2.40;;
11608;SDS011;5860;52.018;8.536;2023-08-06T14:01:39;3.35;;;2.50;;
11608;SDS011;5860;52.018;8.536;2023-08-06T14:04:16;5.53;;;3.40;;
11608;SDS011;5860;52.018;8.536;2023-08-06T14:06:44;4.30;;;3.07;;
11608;SDS011;5860;52.018;8.536;2023-08-06T14:09:10;4.57;;;2.73;;
11608;SDS011;5860;52.018;8.536;2023-08-06T14:11:40;4.13;;;2.77;;
11608;SDS011;5860;52.018;8.536;2023-08-06T14:14:07;3.87;;;2.40;;
11608;SDS011;5860;52.018;8.536;2023-08-06T14:16:34;4.63;;;2.13;;
11608;SDS011;5860;52.018;8.536;2023-08-06T14:19:01;3.70;;;2.00;;
11608;SDS011;5860;52.018;8.536;2023-08-06T14:21:29;4.07;;;1.90;;
11608;SDS011;5860;52.018;8.536;2023-08-06T14:23:55;3.20;;;1.97;;
11608;SDS011;5860;52.018;8.536;2023-08-06T14:26:22;3.30;;;2.30;;
11608;SDS011;5860;52.018;8.536;2023-08-06T14:28:49;5.67;;;2.97;;
11608;SDS011;5860;52.018;8.536;2023-08-06T14:31:20;3.40;;;2.57;;
11608;SDS011;5860;52.018;8.536;2023-08-06T14:33:47;2.93;;;2.63;;
11608;SDS011;5860;52.018;8.536;2023-08-06T14:36:14;3.80;;;3.10;;
11608;SDS011;5860;52.018;8.536;2023-08-06T14:38:41;3.30;;;3.00;;
11608;SDS011;5860;52.018;8.536;2023-08-06T14:41:23;5.07;;;3.40;;
11608;SDS011;5860;52.018;8.536;2023-08-06T14:43:52;4.97;;;3.30;;
11608;SDS011;5860;52.018;8.536;2023-08-06T14:46:20;4.40;;;4.00;;
11608;SDS011;5860;52.018;8.536;2023-08-06T14:48:47;5.00;;;4.00;;
11608;SDS011;5860;52.018;8.536;2023-08-06T14:51:14;4.13;;;3.67;;
11608;SDS011;5860;52.018;8.536;2023-08-06T14:53:41;4.67;;;3.27;;
11608;SDS011;5860;52.018;8.536;2023-08-06T14:56:08;4.13;;;3.30;;
11608;SDS011;5860;52.018;8.536;2023-08-06T14:58:35;3.17;;;2.87;;
11608;SDS011;5860;52.018;8.536;2023-08-06T15:01:03;4.50;;;3.73;;
11608;SDS011;5860;52.018;8.536;2023-08-06T15:03:30;4.47;;;4.00;;
11608;SDS011;5860;52.018;8.536;2023-08-06T15:05:58;6.20;;;4.17;;
11608;SDS011;5860;52.018;8.536;2023-08-06T15:08:25;5.80;;;3.90;;
11608;SDS011;5860;52.018;8.536;2023-08-06T15:10:52;5.17;;;4.67;;
11608;SDS011;5860;52.018;8.536;2023-08-06T15:13:22;4.07;;;3.57;;
11608;SDS011;5860;52.018;8.536;2023-08-06T15:15:49;4.23;;;3.77;;